Eliza, Illinois
Current Conditions -  °F | °C
As of 12:55 AM on Thursday 27 Nov 2014 (Local Time) from KMUT Reporting Station
Overcast Overcast  
Wind Chill: 20°   Ceiling: 2600
Heat Index: 28°   Visibility: 7mi
Dew Point: 23°   Wind: 9mph
Humidity: 80%   Direction: 330°NNW
Pressure: 30.32"   Gusts: NA
Location:  41.2485°N, 90.9857°W
Report Text: KMUT 270655Z AUTO 33008KT 7SM OVC026 M02/M05 A3032 RMK AO2
Loading
Personal Weather Stations






























Interactive Weather Map New forecast layout! Learn more

10-Day Weather Forecast

Advertisements
Track Severe Weather on mobile